createdAt,value
2022-09-27T00:00:37.427Z,13.23
2022-09-27T00:03:04.243Z,12.98
2022-09-27T00:05:31.353Z,13.01
2022-09-27T00:07:57.979Z,13.06
2022-09-27T00:10:24.979Z,13.11
2022-09-27T00:12:52.163Z,13.08
2022-09-27T00:15:20.373Z,13.09
2022-09-27T00:17:51.717Z,13.11
2022-09-27T00:20:23.191Z,13.18
2022-09-27T00:22:49.957Z,13.17
2022-09-27T00:25:16.743Z,13.14
2022-09-27T00:27:43.404Z,13.19
2022-09-27T00:30:10.817Z,13.16
2022-09-27T00:32:37.741Z,13.22
2022-09-27T00:35:04.763Z,13.25
2022-09-27T00:37:31.475Z,13.23
2022-09-27T00:39:58.058Z,13.11
2022-09-27T00:42:24.871Z,13.08
2022-09-27T00:45:04.035Z,13.16
2022-09-27T00:47:35.044Z,13.29
2022-09-27T00:50:26.809Z,13.29
2022-09-27T00:53:15.696Z,13.22
2022-09-27T00:56:08.463Z,13.03
2022-09-27T00:58:44.101Z,13.00
2022-09-27T01:01:12.160Z,12.98
2022-09-27T01:04:10.069Z,13.03
2022-09-27T01:06:37.948Z,13.08
2022-09-27T01:09:10.639Z,13.04
2022-09-27T01:11:46.356Z,13.01
2022-09-27T01:14:38.145Z,13.08
2022-09-27T01:17:34.757Z,13.19
2022-09-27T01:20:20.167Z,13.14
2022-09-27T01:23:11.405Z,13.08
2022-09-27T01:25:58.344Z,13.10
2022-09-27T01:28:41.467Z,13.13
2022-09-27T01:31:44.247Z,13.10
2022-09-27T01:34:27.194Z,13.12
2022-09-27T01:37:24.674Z,13.15
2022-09-27T01:40:24.702Z,13.10
2022-09-27T01:43:34.874Z,13.04
2022-09-27T01:46:08.813Z,13.06
2022-09-27T01:48:57.152Z,13.12
2022-09-27T01:51:28.540Z,13.12
2022-09-27T01:54:01.551Z,13.05
2022-09-27T01:57:01.196Z,13.11
2022-09-27T01:59:57.483Z,13.17
2022-09-27T02:02:55.573Z,13.25
2022-09-27T02:05:55.871Z,13.32
2022-09-27T02:09:06.134Z,13.36
2022-09-27T02:11:56.054Z,13.36
2022-09-27T02:14:53.322Z,13.40
2022-09-27T02:17:42.466Z,13.40
2022-09-27T02:20:28.609Z,13.46
2022-09-27T02:23:11.103Z,13.45
2022-09-27T02:25:44.573Z,13.42
2022-09-27T02:28:30.878Z,13.42
2022-09-27T02:30:57.874Z,13.42
2022-09-27T02:33:42.987Z,13.44
2022-09-27T02:36:09.947Z,13.44
2022-09-27T02:38:37.331Z,13.47
2022-09-27T02:41:04.797Z,13.49
2022-09-27T02:43:33.384Z,13.52
2022-09-27T02:46:07.376Z,13.52
2022-09-27T02:48:55.836Z,13.51
2022-09-27T02:51:37.886Z,13.49
2022-09-27T02:54:26.145Z,13.47
2022-09-27T02:57:30.494Z,13.45
2022-09-27T03:00:37.259Z,13.47
2022-09-27T03:04:15.035Z,13.47
2022-09-27T03:06:45.210Z,13.37
2022-09-27T03:09:19.707Z,13.41
2022-09-27T03:11:46.466Z,13.42
2022-09-27T03:14:13.307Z,13.44
2022-09-27T03:16:49.154Z,13.45
2022-09-27T03:19:36.014Z,13.42
2022-09-27T03:22:33.348Z,13.45
2022-09-27T03:24:59.987Z,13.48
2022-09-27T03:27:26.730Z,13.54
2022-09-27T03:29:53.370Z,13.55
2022-09-27T03:32:20.862Z,13.56
2022-09-27T03:35:06.039Z,13.55
2022-09-27T03:37:32.663Z,13.57
2022-09-27T03:39:59.270Z,13.59
2022-09-27T03:42:25.910Z,13.57
2022-09-27T03:44:53.490Z,13.58
2022-09-27T03:47:20.092Z,13.56
2022-09-27T03:49:47.313Z,13.48
2022-09-27T03:52:14.887Z,13.53
2022-09-27T03:54:42.814Z,13.54
2022-09-27T03:57:09.384Z,13.57
2022-09-27T03:59:37.418Z,13.59
2022-09-27T04:02:22.719Z,13.60
2022-09-27T04:05:08.041Z,13.56
2022-09-27T04:07:35.174Z,13.55
2022-09-27T04:10:02.082Z,13.58
2022-09-27T04:12:30.036Z,13.60
2022-09-27T04:14:56.666Z,13.62
2022-09-27T04:17:52.371Z,13.59
2022-09-27T04:20:39.207Z,13.54
2022-09-27T04:23:12.594Z,13.51
2022-09-27T04:25:44.270Z,13.53
2022-09-27T04:28:19.953Z,13.48
2022-09-27T04:30:47.098Z,13.46
2022-09-27T04:33:48.937Z,13.45
2022-09-27T04:36:28.547Z,13.46
2022-09-27T04:39:04.043Z,13.48
2022-09-27T04:41:32.356Z,13.49
2022-09-27T04:44:01.114Z,13.47
2022-09-27T04:46:32.187Z,13.42
2022-09-27T04:49:02.251Z,13.41
2022-09-27T04:51:30.774Z,13.38
2022-09-27T04:53:58.256Z,13.38
2022-09-27T04:56:31.335Z,13.38
2022-09-27T04:58:58.588Z,13.39
2022-09-27T05:01:25.205Z,13.36
2022-09-27T05:04:07.565Z,13.32
2022-09-27T05:06:37.144Z,13.28
2022-09-27T05:09:16.782Z,13.31
2022-09-27T05:11:49.419Z,13.33
2022-09-27T05:14:16.110Z,13.37
2022-09-27T05:16:55.457Z,13.33
2022-09-27T05:19:34.605Z,13.32
2022-09-27T05:22:20.891Z,13.32
2022-09-27T05:24:47.448Z,13.35
2022-09-27T05:27:18.383Z,13.37
2022-09-27T05:29:45.596Z,13.34
2022-09-27T05:32:17.868Z,13.33
2022-09-27T05:34:48.323Z,13.34
2022-09-27T05:37:15.258Z,13.33
2022-09-27T05:39:42.401Z,13.29
2022-09-27T05:42:10.293Z,13.30
2022-09-27T05:44:38.575Z,13.25
2022-09-27T05:47:05.507Z,13.25
2022-09-27T05:49:33.560Z,13.23
2022-09-27T05:52:02.122Z,13.23
2022-09-27T05:54:29.928Z,13.26
2022-09-27T05:56:59.167Z,13.31
2022-09-27T05:59:47.058Z,13.33
2022-09-27T06:02:32.359Z,13.30
2022-09-27T06:05:19.730Z,13.31
2022-09-27T06:07:49.751Z,13.29
2022-09-27T06:10:24.862Z,13.32
2022-09-27T06:12:51.401Z,13.36
2022-09-27T06:15:33.683Z,13.37
2022-09-27T06:18:11.946Z,13.43
2022-09-27T06:20:41.435Z,13.43
2022-09-27T06:23:12.538Z,13.48
2022-09-27T06:25:40.310Z,13.55
2022-09-27T06:28:20.596Z,13.65
2022-09-27T06:30:50.647Z,13.66
2022-09-27T06:33:36.116Z,13.59
2022-09-27T06:36:05.126Z,13.65
2022-09-27T06:38:33.192Z,13.67
2022-09-27T06:41:07.675Z,13.71
2022-09-27T06:43:51.745Z,13.73
2022-09-27T06:46:51.731Z,13.74
2022-09-27T06:49:27.801Z,13.82
2022-09-27T06:51:55.456Z,13.95
2022-09-27T06:54:22.678Z,14.04
2022-09-27T06:56:49.393Z,14.15
2022-09-27T06:59:35.401Z,14.24
2022-09-27T07:02:23.085Z,14.32
2022-09-27T07:04:58.926Z,14.35
2022-09-27T07:07:49.126Z,14.36
2022-09-27T07:10:18.272Z,14.40
2022-09-27T07:12:48.779Z,14.39
2022-09-27T07:15:16.544Z,14.38
2022-09-27T07:17:43.915Z,14.35
2022-09-27T07:20:11.679Z,14.33
2022-09-27T07:22:45.936Z,14.30
2022-09-27T07:25:13.877Z,14.32
2022-09-27T07:27:41.982Z,14.39
2022-09-27T07:30:11.866Z,14.43
2022-09-27T07:32:38.797Z,14.38
2022-09-27T07:35:09.457Z,14.36
2022-09-27T07:37:37.484Z,14.38
2022-09-27T07:40:08.718Z,14.38
2022-09-27T07:42:41.214Z,14.41
2022-09-27T07:45:09.618Z,14.45
2022-09-27T07:48:14.135Z,14.59
2022-09-27T07:51:07.670Z,14.66
2022-09-27T07:53:41.252Z,14.67
2022-09-27T07:56:30.470Z,14.59
2022-09-27T07:58:57.569Z,14.49
2022-09-27T08:01:24.246Z,14.44
2022-09-27T08:03:51.131Z,14.38
2022-09-27T08:06:19.097Z,14.37
2022-09-27T08:08:47.424Z,14.37
2022-09-27T08:11:16.442Z,14.42
2022-09-27T08:13:45.857Z,14.52
2022-09-27T08:16:14.247Z,14.66
2022-09-27T08:19:07.564Z,14.79
2022-09-27T08:21:59.006Z,14.87
2022-09-27T08:24:42.061Z,14.87
2022-09-27T08:27:20.530Z,14.91
2022-09-27T08:29:56.145Z,15.01
2022-09-27T08:32:23.583Z,15.13
2022-09-27T08:34:51.380Z,15.26
2022-09-27T08:37:20.637Z,15.33
2022-09-27T08:39:48.439Z,15.36
2022-09-27T08:42:37.279Z,15.35
2022-09-27T08:45:13.042Z,15.34
2022-09-27T08:47:47.792Z,15.23
2022-09-27T08:50:29.650Z,15.11
2022-09-27T08:53:05.284Z,15.05
2022-09-27T08:55:43.704Z,14.96
2022-09-27T08:58:25.262Z,14.92
2022-09-27T09:00:55.479Z,15.01
2022-09-27T09:03:30.701Z,15.14
2022-09-27T09:06:17.280Z,15.35
2022-09-27T09:09:14.862Z,15.57
2022-09-27T09:12:17.549Z,15.69
2022-09-27T09:15:08.687Z,16.27
2022-09-27T09:17:54.045Z,17.29
2022-09-27T09:21:03.366Z,18.16
2022-09-27T09:23:32.974Z,18.63
2022-09-27T09:26:15.513Z,18.82
2022-09-27T09:29:11.527Z,19.08
2022-09-27T09:31:46.039Z,19.55
2022-09-27T09:34:39.088Z,21.20
2022-09-27T09:37:39.828Z,21.02
2022-09-27T09:40:25.073Z,20.23
2022-09-27T09:42:59.510Z,19.49
2022-09-27T09:45:35.151Z,18.73
2022-09-27T09:48:20.792Z,18.31
2022-09-27T09:50:55.006Z,18.05
2022-09-27T09:53:28.293Z,17.96
2022-09-27T09:56:00.667Z,17.75
2022-09-27T09:58:34.984Z,17.61
2022-09-27T10:01:41.753Z,17.44
2022-09-27T10:04:18.548Z,17.21
2022-09-27T10:06:45.245Z,16.94
2022-09-27T10:09:15.811Z,16.76
2022-09-27T10:12:02.429Z,16.50
2022-09-27T10:14:31.037Z,16.29
2022-09-27T10:17:06.653Z,16.13
2022-09-27T10:19:37.393Z,15.97
2022-09-27T10:22:16.867Z,15.89
2022-09-27T10:25:04.340Z,15.89
2022-09-27T10:27:55.892Z,15.92
2022-09-27T10:30:32.181Z,15.96
2022-09-27T10:33:06.676Z,16.01
2022-09-27T10:35:47.002Z,16.11
2022-09-27T10:38:36.151Z,16.22
2022-09-27T10:41:33.200Z,16.63
2022-09-27T10:44:15.692Z,17.77
2022-09-27T10:46:45.278Z,18.85
2022-09-27T10:49:34.051Z,20.04
2022-09-27T10:52:14.184Z,21.00
2022-09-27T10:54:42.432Z,21.16
2022-09-27T10:57:21.494Z,20.68
2022-09-27T11:00:12.379Z,20.15
2022-09-27T11:02:40.214Z,19.59
2022-09-27T11:05:15.789Z,19.11
2022-09-27T11:07:51.084Z,18.81
2022-09-27T11:10:37.801Z,18.83
2022-09-27T11:13:07.151Z,18.95
2022-09-27T11:15:48.799Z,19.32
2022-09-27T11:19:01.448Z,19.50
2022-09-27T11:21:52.227Z,19.90
2022-09-27T11:24:31.415Z,20.03
2022-09-27T11:27:02.569Z,19.62
2022-09-27T11:29:38.756Z,19.18
2022-09-27T11:32:30.915Z,18.44
2022-09-27T11:35:18.867Z,17.81
2022-09-27T11:38:07.336Z,17.20
2022-09-27T11:40:41.818Z,16.76
2022-09-27T11:43:27.771Z,16.49
2022-09-27T11:46:36.617Z,16.22
2022-09-27T11:49:40.502Z,16.07
2022-09-27T11:52:10.843Z,16.07
2022-09-27T11:55:09.648Z,16.21
2022-09-27T11:57:43.689Z,16.49
2022-09-27T12:00:25.065Z,16.89
2022-09-27T12:03:36.597Z,18.72
2022-09-27T12:06:11.835Z,22.76
2022-09-27T12:08:53.435Z,23.81
2022-09-27T12:11:28.156Z,23.76
2022-09-27T12:14:14.148Z,26.13
2022-09-27T12:16:42.500Z,28.98
2022-09-27T12:19:19.738Z,29.72
2022-09-27T12:22:02.965Z,27.69
2022-09-27T12:24:31.006Z,25.66
2022-09-27T12:27:52.015Z,23.98
2022-09-27T12:30:21.711Z,22.81
2022-09-27T12:33:04.792Z,22.04
2022-09-27T12:35:40.328Z,21.44
2022-09-27T12:38:22.046Z,20.91
2022-09-27T12:40:53.738Z,20.53
2022-09-27T12:43:34.121Z,20.10
2022-09-27T12:46:10.304Z,19.86
2022-09-27T12:48:44.506Z,19.80
2022-09-27T12:51:18.913Z,19.82
2022-09-27T12:54:00.235Z,19.77
2022-09-27T12:56:41.925Z,19.51
2022-09-27T12:59:47.967Z,18.84
2022-09-27T13:02:39.372Z,18.62
2022-09-27T13:05:46.789Z,18.79
2022-09-27T13:08:45.610Z,19.18
2022-09-27T13:11:24.936Z,19.23
2022-09-27T13:13:57.654Z,19.11
2022-09-27T13:16:25.778Z,18.55
2022-09-27T13:19:01.752Z,18.30
2022-09-27T13:21:47.695Z,18.14
2022-09-27T13:24:47.082Z,17.91
2022-09-27T13:27:32.640Z,17.87
2022-09-27T13:30:07.997Z,17.88
2022-09-27T13:32:36.544Z,17.85
2022-09-27T13:35:26.370Z,17.63
2022-09-27T13:38:00.592Z,17.39
2022-09-27T13:40:43.904Z,17.19
2022-09-27T13:43:36.074Z,17.04
2022-09-27T13:46:23.678Z,17.05
2022-09-27T13:49:06.123Z,17.04
2022-09-27T13:52:02.108Z,16.94
2022-09-27T13:54:39.263Z,16.84
2022-09-27T13:57:41.841Z,16.64
2022-09-27T14:00:20.912Z,16.42
2022-09-27T14:03:53.539Z,16.33
2022-09-27T14:06:28.126Z,15.94
2022-09-27T14:08:59.440Z,15.77
2022-09-27T14:11:33.649Z,15.76
2022-09-27T14:14:03.205Z,15.76
2022-09-27T14:16:36.539Z,15.89
2022-09-27T14:19:04.072Z,16.01
2022-09-27T14:21:40.094Z,16.16
2022-09-27T14:24:36.397Z,16.22
2022-09-27T14:27:21.214Z,16.17
2022-09-27T14:29:57.320Z,16.13
2022-09-27T14:32:33.900Z,16.26
2022-09-27T14:35:34.257Z,16.40
2022-09-27T14:38:20.605Z,16.43
2022-09-27T14:40:53.421Z,16.20
2022-09-27T14:43:21.870Z,16.02
2022-09-27T14:45:51.783Z,16.03
2022-09-27T14:48:27.031Z,16.12
2022-09-27T14:51:06.188Z,16.30
2022-09-27T14:53:42.366Z,16.42
2022-09-27T14:56:19.679Z,16.50
2022-09-27T14:58:48.242Z,16.50
2022-09-27T15:01:18.126Z,16.42
2022-09-27T15:03:46.049Z,16.29
2022-09-27T15:06:13.411Z,16.14
2022-09-27T15:08:40.874Z,16.14
2022-09-27T15:11:10.614Z,16.13
2022-09-27T15:13:38.206Z,16.05
2022-09-27T15:16:19.836Z,15.93
2022-09-27T15:18:49.446Z,15.80
2022-09-27T15:21:30.393Z,15.79
2022-09-27T15:23:58.760Z,15.71
2022-09-27T15:26:35.943Z,15.62
2022-09-27T15:29:03.639Z,15.50
2022-09-27T15:31:32.163Z,15.38
2022-09-27T15:33:59.631Z,15.29
2022-09-27T15:36:47.617Z,15.22
2022-09-27T15:39:19.256Z,15.19
2022-09-27T15:42:07.984Z,15.22
2022-09-27T15:44:51.009Z,15.16
2022-09-27T15:47:34.383Z,15.15
2022-09-27T15:50:16.257Z,15.20
2022-09-27T15:52:52.771Z,15.10
2022-09-27T15:55:24.449Z,15.13
2022-09-27T15:58:08.114Z,15.18
2022-09-27T16:00:35.922Z,15.15
2022-09-27T16:03:02.535Z,15.22
2022-09-27T16:05:29.910Z,15.25
2022-09-27T16:07:57.783Z,15.31
2022-09-27T16:10:32.639Z,15.27
2022-09-27T16:12:59.236Z,15.18
2022-09-27T16:15:25.797Z,15.19
2022-09-27T16:17:52.682Z,15.22
2022-09-27T16:20:25.123Z,15.31
2022-09-27T16:22:52.487Z,15.40
2022-09-27T16:25:20.454Z,15.49
2022-09-27T16:27:47.891Z,15.56
2022-09-27T16:30:15.416Z,15.57
2022-09-27T16:32:46.693Z,15.50
2022-09-27T16:35:15.181Z,15.31
2022-09-27T16:37:42.262Z,15.12
2022-09-27T16:40:10.465Z,14.99
2022-09-27T16:42:37.758Z,14.91
2022-09-27T16:45:09.951Z,14.81
2022-09-27T16:47:38.627Z,14.69
2022-09-27T16:50:24.202Z,14.54
2022-09-27T16:52:52.248Z,14.33
2022-09-27T16:55:20.809Z,14.24
2022-09-27T16:57:48.570Z,14.19
2022-09-27T17:00:15.996Z,14.14
2022-09-27T17:02:47.221Z,14.08
2022-09-27T17:05:15.435Z,14.00
2022-09-27T17:07:42.737Z,13.96
2022-09-27T17:10:09.526Z,13.94
2022-09-27T17:12:36.534Z,13.95
2022-09-27T17:15:03.300Z,14.02
2022-09-27T17:17:30.641Z,14.10
2022-09-27T17:19:57.293Z,14.13
2022-09-27T17:22:23.926Z,14.16
2022-09-27T17:24:51.195Z,14.17
2022-09-27T17:27:18.290Z,14.18
2022-09-27T17:29:45.175Z,14.17
2022-09-27T17:32:12.741Z,14.20
2022-09-27T17:34:43.488Z,14.23
2022-09-27T17:37:13.662Z,14.24
2022-09-27T17:39:40.406Z,14.25
2022-09-27T17:42:07.101Z,14.25
2022-09-27T17:44:33.780Z,14.21
2022-09-27T17:55:24.550Z,13.59
2022-09-27T17:57:51.679Z,13.52
2022-09-27T19:19:30.179Z,12.72
2022-09-27T19:21:56.771Z,12.71
2022-09-27T19:24:23.519Z,12.72
2022-09-27T19:26:53.454Z,12.73
2022-09-27T19:29:20.073Z,12.67
2022-09-27T19:31:49.149Z,12.72
2022-09-27T19:34:15.989Z,12.74
2022-09-27T19:36:42.578Z,12.70
2022-09-27T19:39:09.206Z,12.67
2022-09-27T19:41:35.832Z,12.61
2022-09-27T19:44:02.459Z,12.51
2022-09-27T19:46:29.098Z,12.59
2022-09-27T19:48:56.277Z,12.63
2022-09-27T19:51:27.408Z,12.66
2022-09-27T19:53:54.646Z,12.77
2022-09-27T19:56:22.592Z,12.88
2022-09-27T19:58:49.796Z,12.83
2022-09-27T20:01:22.518Z,12.77
2022-09-27T20:03:51.634Z,12.76
2022-09-27T20:06:20.053Z,12.80
2022-09-27T20:08:50.235Z,12.89
2022-09-27T20:11:22.618Z,12.75
2022-09-27T20:13:53.655Z,12.76
2022-09-27T20:16:24.997Z,12.72
2022-09-27T20:18:53.938Z,12.62
2022-09-27T20:21:22.594Z,12.68
2022-09-27T20:23:54.236Z,12.80
2022-09-27T20:26:22.692Z,12.84
2022-09-27T20:28:54.545Z,12.77
2022-09-27T20:31:23.587Z,12.74
2022-09-27T20:33:52.515Z,12.79
2022-09-27T20:36:28.496Z,12.82
2022-09-27T20:39:04.049Z,12.80
2022-09-27T20:41:33.260Z,12.69
2022-09-27T20:44:04.230Z,12.30
2022-09-27T20:46:31.666Z,12.25
2022-09-27T20:49:01.723Z,12.34
2022-09-27T20:51:29.039Z,12.47
2022-09-27T20:53:55.738Z,12.35
2022-09-27T20:56:25.365Z,12.33
2022-09-27T20:58:54.148Z,12.36
2022-09-27T21:01:22.572Z,12.33
2022-09-27T21:03:54.087Z,12.31
2022-09-27T21:06:22.928Z,12.36
2022-09-27T21:08:50.552Z,12.39
2022-09-27T21:11:18.275Z,12.45
2022-09-27T21:13:47.674Z,12.50
2022-09-27T21:16:22.863Z,12.57
2022-09-27T21:18:51.285Z,12.60
2022-09-27T21:21:18.895Z,12.63
2022-09-27T21:23:46.550Z,12.50
2022-09-27T21:26:18.442Z,12.37
2022-09-27T21:28:46.370Z,12.36
2022-09-27T21:31:20.176Z,12.26
2022-09-27T21:33:53.988Z,12.22
2022-09-27T21:36:25.265Z,12.15
2022-09-27T21:38:52.074Z,12.09
2022-09-27T21:41:18.930Z,12.08
2022-09-27T21:43:47.714Z,11.89
2022-09-27T21:46:21.016Z,11.74
2022-09-27T21:48:49.236Z,11.77
2022-09-27T21:51:19.911Z,11.69
2022-09-27T21:53:54.822Z,11.79
2022-09-27T21:56:22.914Z,11.94
2022-09-27T21:58:49.727Z,11.98
2022-09-27T22:01:19.119Z,11.82
2022-09-27T22:03:46.822Z,11.76
2022-09-27T22:06:22.047Z,11.92
2022-09-27T22:08:49.621Z,12.12
2022-09-27T22:11:19.101Z,12.13
2022-09-27T22:13:45.695Z,12.23
2022-09-27T22:16:15.134Z,12.22
2022-09-27T22:18:47.030Z,12.11
2022-09-27T22:21:16.325Z,12.10
2022-09-27T22:23:43.037Z,12.09
2022-09-27T22:26:18.319Z,12.06
2022-09-27T22:28:46.331Z,12.01
2022-09-27T22:31:15.296Z,11.89
2022-09-27T22:33:42.991Z,11.80
2022-09-27T22:36:09.742Z,11.76
2022-09-27T22:38:36.309Z,12.03
2022-09-27T22:41:03.421Z,12.11
2022-09-27T22:43:30.996Z,12.27
2022-09-27T22:46:00.243Z,12.23
2022-09-27T22:48:28.699Z,12.08
2022-09-27T22:50:57.041Z,12.10
2022-09-27T22:53:28.199Z,12.15
2022-09-27T22:56:06.997Z,12.02
2022-09-27T22:58:34.852Z,11.86
2022-09-27T23:01:09.173Z,12.02
2022-09-27T23:03:35.864Z,12.16
2022-09-27T23:06:04.440Z,12.20
2022-09-27T23:08:36.169Z,12.21
2022-09-27T23:11:09.259Z,12.21
2022-09-27T23:13:38.748Z,12.11
2022-09-27T23:16:10.873Z,12.15
2022-09-27T23:18:38.155Z,12.19
2022-09-27T23:21:08.159Z,12.20
2022-09-27T23:23:36.161Z,12.21
2022-09-27T23:26:06.635Z,12.23
2022-09-27T23:28:34.005Z,12.26
2022-09-27T23:31:29.610Z,12.23
2022-09-27T23:33:58.439Z,12.03
2022-09-27T23:36:27.505Z,11.97
2022-09-27T23:38:58.047Z,11.87
2022-09-27T23:41:24.799Z,11.95
2022-09-27T23:43:51.532Z,11.82
2022-09-27T23:46:18.567Z,11.77
2022-09-27T23:48:46.067Z,11.71
2022-09-27T23:51:13.006Z,11.78
2022-09-27T23:53:40.621Z,11.85
2022-09-27T23:56:13.187Z,11.86
2022-09-27T23:58:41.878Z,11.90
